Time;durP1;ratioP1;P1;durP2;ratioP2;P2;SDS_P1;SDS_P2;PMS_P1;PMS_P2;Temp;Humidity;BMP_temperature;BMP_pressure;BME280_temperature;BME280_humidity;BME280_pressure;Samples;Min_cycle;Max_cycle;Signal;HPM_P1;HPM_P2
2024/03/25 00:01:04;;;;;;;1.88;0.80;;;;;;;3.88;100.00;98837.59;5085763;28;20021;-72
2024/03/25 00:03:29;;;;;;;0.68;0.68;;;;;;;3.84;100.00;98831.63;5085311;28;20043;-72
2024/03/25 00:05:55;;;;;;;0.77;0.63;;;;;;;3.84;100.00;98836.75;5085675;28;20024;-72
2024/03/25 00:08:20;;;;;;;0.80;0.80;;;;;;;3.81;100.00;98839.34;5085743;28;20052;-72
2024/03/25 00:10:45;;;;;;;0.40;0.40;;;;;;;3.77;100.00;98836.81;5085665;28;20035;-70
2024/03/25 00:13:11;;;;;;;0.60;0.60;;;;;;;3.76;100.00;98835.06;5085494;28;20016;-72
2024/03/25 00:15:37;;;;;;;0.70;0.70;;;;;;;3.68;100.00;98828.28;5084158;28;20084;-72
2024/03/25 00:18:04;;;;;;;0.40;0.40;;;;;;;3.69;100.00;98844.56;5085428;28;20028;-71
2024/03/25 00:20:29;;;;;;;0.50;0.50;;;;;;;3.54;100.00;98846.34;5083993;28;20055;-72
2024/03/25 00:22:54;;;;;;;0.40;0.40;;;;;;;3.56;100.00;98854.03;5085260;28;20032;-72
2024/03/25 00:25:20;;;;;;;0.40;0.40;;;;;;;3.50;100.00;98860.03;5085458;28;20079;-70
2024/03/25 00:27:45;;;;;;;0.50;0.50;;;;;;;3.45;100.00;98856.66;5085584;28;20024;-70
2024/03/25 00:30:11;;;;;;;0.40;0.40;;;;;;;3.45;100.00;98862.59;5085400;28;20048;-71
2024/03/25 00:32:37;;;;;;;0.40;0.40;;;;;;;3.42;100.00;98864.34;5083738;28;20016;-68
2024/03/25 00:35:02;;;;;;;0.70;0.70;;;;;;;3.38;100.00;98871.19;5085402;28;20028;-69
2024/03/25 00:37:28;;;;;;;0.60;0.60;;;;;;;3.44;100.00;98873.75;5084208;28;20025;-72
2024/03/25 00:39:53;;;;;;;0.60;0.60;;;;;;;3.47;100.00;98878.00;5085119;28;20084;-71
2024/03/25 00:42:19;;;;;;;0.50;0.50;;;;;;;3.50;100.00;98869.44;5085019;28;20020;-71
2024/03/25 00:44:44;;;;;;;0.40;0.40;;;;;;;3.46;100.00;98878.88;5085193;28;20024;-70
2024/03/25 00:47:10;;;;;;;0.40;0.40;;;;;;;3.44;100.00;98872.88;5085316;28;20515;-71
2024/03/25 00:49:35;;;;;;;0.68;0.68;;;;;;;3.46;100.00;98876.31;5084823;28;20025;-71
2024/03/25 00:52:00;;;;;;;0.40;0.40;;;;;;;3.43;100.00;98877.19;5117764;28;20016;-71
2024/03/25 00:54:26;;;;;;;0.60;0.60;;;;;;;3.47;100.00;98891.69;5085256;28;20028;-71
2024/03/25 00:56:51;;;;;;;0.60;0.60;;;;;;;3.46;100.00;98877.16;5084886;28;20051;-70
2024/03/25 00:59:17;;;;;;;0.40;0.40;;;;;;;3.52;100.00;98886.53;5085060;28;20032;-71
2024/03/25 01:01:43;;;;;;;0.50;0.50;;;;;;;3.54;100.00;98886.53;5085745;28;20537;-69
2024/03/25 01:04:08;;;;;;;0.40;0.40;;;;;;;3.56;100.00;98874.56;5088962;28;20036;-70
2024/03/25 01:06:33;;;;;;;0.68;0.68;;;;;;;3.54;100.00;98878.84;5089050;28;20028;-71
2024/03/25 01:08:59;;;;;;;0.65;0.65;;;;;;;3.57;100.00;98879.69;5087898;28;20024;-70
2024/03/25 01:11:24;;;;;;;0.60;0.60;;;;;;;3.51;100.00;98878.84;5089109;28;20027;-69
2024/03/25 01:13:49;;;;;;;0.50;0.50;;;;;;;3.54;100.00;98886.53;5089076;28;20020;-71
2024/03/25 01:16:15;;;;;;;1.23;0.80;;;;;;;3.49;100.00;98880.56;5087500;28;20571;-70
2024/03/25 01:18:40;;;;;;;0.45;0.45;;;;;;;3.44;100.00;98895.97;5088438;28;20043;-70
2024/03/25 01:21:06;;;;;;;0.40;0.40;;;;;;;3.44;100.00;98890.84;5089103;28;20016;-70
2024/03/25 01:23:31;;;;;;;0.73;0.73;;;;;;;3.44;100.00;98899.41;5088605;28;20404;-71
2024/03/25 01:25:57;;;;;;;0.47;0.47;;;;;;;3.38;100.00;98891.72;5088591;28;20028;-71
2024/03/25 01:28:22;;;;;;;0.40;0.40;;;;;;;3.24;100.00;98878.09;5088779;28;20031;-70
2024/03/25 01:30:48;;;;;;;0.40;0.40;;;;;;;3.29;100.00;98905.41;5088565;28;20028;-70
2024/03/25 01:33:13;;;;;;;0.40;0.40;;;;;;;3.22;100.00;98893.47;5088269;28;20043;-70
2024/03/25 01:35:39;;;;;;;0.40;0.40;;;;;;;3.19;100.00;98902.06;5088435;28;20028;-70
2024/03/25 01:38:04;;;;;;;0.50;0.50;;;;;;;3.21;100.00;98896.91;5121377;28;20483;-70
2024/03/25 01:40:30;;;;;;;0.57;0.57;;;;;;;3.18;100.00;98899.50;5087041;28;20092;-70
2024/03/25 01:42:59;;;;;;;0.40;0.40;;;;;;;3.10;100.00;98884.09;5088486;28;20020;-71
2024/03/25 01:45:27;;;;;;;0.88;0.73;;;;;;;3.06;100.00;98880.72;5088552;28;20028;-71
2024/03/25 01:47:54;;;;;;;0.50;0.50;;;;;;;3.09;100.00;98895.22;5087485;28;20031;-68
2024/03/25 01:50:21;;;;;;;0.65;0.50;;;;;;;3.07;100.00;98899.50;5088156;28;20059;-69
2024/03/25 01:52:47;;;;;;;0.40;0.40;;;;;;;3.02;100.00;98885.84;5088021;28;20017;-70
2024/03/25 01:55:17;;;;;;;0.82;0.82;;;;;;;3.04;100.00;98895.22;5088005;28;20021;-68
2024/03/25 01:57:44;;;;;;;0.50;0.50;;;;;;;2.99;100.00;98888.41;5088150;28;20024;-70
2024/03/25 02:00:11;;;;;;;0.50;0.50;;;;;;;3.00;100.00;98895.25;5088135;28;20024;-71
2024/03/25 02:02:41;;;;;;;0.50;0.50;;;;;;;2.97;100.00;98891.81;5087993;28;20025;-70
2024/03/25 02:05:07;;;;;;;0.63;0.63;;;;;;;3.03;100.00;98900.38;5088143;28;20028;-70
2024/03/25 02:07:36;;;;;;;0.50;0.50;;;;;;;3.03;100.00;98895.22;5088087;28;20063;-70
2024/03/25 02:10:03;;;;;;;0.40;0.40;;;;;;;3.09;100.00;98908.03;5088038;28;20028;-69
2024/03/25 02:12:29;;;;;;;0.40;0.40;;;;;;;3.09;100.00;98900.34;5086543;28;20078;-70
2024/03/25 02:14:54;;;;;;;0.50;0.50;;;;;;;3.13;100.00;98901.22;5087687;28;20396;-70
2024/03/25 02:17:20;;;;;;;0.65;0.65;;;;;;;3.13;100.00;98898.63;5087529;28;20025;-70
2024/03/25 02:19:45;;;;;;;0.55;0.55;;;;;;;3.12;100.00;98907.16;5087542;28;20071;-70
2024/03/25 02:22:10;;;;;;;0.50;0.50;;;;;;;3.09;100.00;98903.78;5087525;28;20353;-70
2024/03/25 02:24:38;;;;;;;0.40;0.40;;;;;;;3.09;100.00;98916.59;5087450;28;20030;-69
2024/03/25 02:27:04;;;;;;;0.50;0.50;;;;;;;3.01;100.00;98899.50;5087439;28;20020;-70
2024/03/25 02:29:36;;;;;;;0.60;0.60;;;;;;;3.07;100.00;98917.44;5087509;28;20040;-66
2024/03/25 02:32:01;;;;;;;0.98;0.77;;;;;;;3.11;100.00;98929.41;5087384;28;20499;-70
2024/03/25 02:34:26;;;;;;;0.50;0.50;;;;;;;3.08;100.00;98919.16;5087156;28;20028;-69
2024/03/25 02:36:53;;;;;;;1.13;0.75;;;;;;;3.12;100.00;98917.44;5087236;28;20028;-70
2024/03/25 02:39:19;;;;;;;3.05;0.82;;;;;;;3.08;100.00;98908.91;5087242;28;20035;-71
2024/03/25 02:41:46;;;;;;;0.50;0.50;;;;;;;3.18;100.00;98925.97;5087068;28;20052;-70
2024/03/25 02:44:12;;;;;;;0.57;0.57;;;;;;;3.17;100.00;98933.66;5087197;28;20031;-70
2024/03/25 02:46:40;;;;;;;0.40;0.40;;;;;;;3.19;100.00;98937.09;5087194;28;20025;-70
2024/03/25 02:49:05;;;;;;;0.47;0.47;;;;;;;3.17;100.00;98936.22;5086935;28;20024;-70
2024/03/25 02:51:30;;;;;;;0.52;0.52;;;;;;;3.17;100.00;98933.66;5087115;28;20066;-69
2024/03/25 02:53:56;;;;;;;0.50;0.50;;;;;;;3.21;100.00;98937.94;5086898;28;20016;-69
2024/03/25 02:56:21;;;;;;;0.40;0.40;;;;;;;2.99;100.00;98903.81;5085392;28;20024;-69
2024/03/25 02:58:46;;;;;;;0.40;0.40;;;;;;;3.20;100.00;98938.78;5085555;28;20029;-70
2024/03/25 03:01:12;;;;;;;0.50;0.50;;;;;;;3.12;100.00;98933.69;5086437;28;20031;-70
2024/03/25 03:03:37;;;;;;;0.40;0.40;;;;;;;3.21;100.00;98946.47;5085281;28;20032;-70
2024/03/25 03:06:03;;;;;;;0.50;0.50;;;;;;;3.20;100.00;98938.78;5086863;28;20039;-69
2024/03/25 03:08:28;;;;;;;0.85;0.85;;;;;;;3.19;100.00;98931.97;5085412;28;20055;-70
2024/03/25 03:10:54;;;;;;;2.05;1.15;;;;;;;3.17;100.00;98936.22;5086582;28;20104;-70
2024/03/25 03:13:19;;;;;;;0.40;0.40;;;;;;;3.17;100.00;98939.66;5086576;28;20020;-69
2024/03/25 03:15:44;;;;;;;1.05;1.05;;;;;;;3.17;100.00;98951.63;5086345;28;20020;-69
2024/03/25 03:18:10;;;;;;;0.43;0.43;;;;;;;3.11;100.00;98944.81;5084954;28;20031;-69
2024/03/25 03:20:35;;;;;;;0.50;0.50;;;;;;;3.08;100.00;98948.22;5086208;28;20078;-71
2024/03/25 03:23:01;;;;;;;0.68;0.68;;;;;;;3.02;100.00;98952.50;5084575;28;20365;-71
2024/03/25 03:25:26;;;;;;;0.80;0.80;;;;;;;2.93;100.00;98956.78;5085598;28;20023;-71
2024/03/25 03:27:51;;;;;;;0.50;0.50;;;;;;;2.90;100.00;98955.91;5085939;28;20024;-72
2024/03/25 03:30:17;;;;;;;0.55;0.55;;;;;;;2.82;100.00;98945.69;5086091;28;20020;-73
2024/03/25 03:32:42;;;;;;;0.63;0.60;;;;;;;2.82;100.00;98956.78;5086262;28;20036;-73
2024/03/25 03:35:07;;;;;;;1.00;1.00;;;;;;;2.79;100.00;98949.09;5084649;28;20028;-73
2024/03/25 03:37:33;;;;;;;0.50;0.50;;;;;;;2.82;100.00;98956.78;5085979;28;20028;-72
2024/03/25 03:39:58;;;;;;;1.05;0.70;;;;;;;2.80;100.00;98955.94;5085856;28;20051;-70
2024/03/25 03:42:23;;;;;;;1.08;1.02;;;;;;;2.83;100.00;98960.19;5085732;28;20024;-72
2024/03/25 03:44:49;;;;;;;0.55;0.55;;;;;;;2.87;100.00;98950.81;5086014;28;20080;-71
2024/03/25 03:47:14;;;;;;;0.60;0.60;;;;;;;2.92;100.00;98962.78;5085842;28;20025;-71
2024/03/25 03:49:39;;;;;;;0.63;0.57;;;;;;;2.92;100.00;98959.34;5085600;28;20046;-70
2024/03/25 03:52:05;;;;;;;0.50;0.50;;;;;;;2.98;100.00;98964.47;5085720;28;20052;-71
2024/03/25 03:54:30;;;;;;;0.70;0.70;;;;;;;2.97;100.00;98970.47;5084345;28;20021;-71
2024/03/25 03:56:56;;;;;;;0.63;0.52;;;;;;;3.00;100.00;98969.59;5084149;28;20036;-71
2024/03/25 03:59:21;;;;;;;0.50;0.50;;;;;;;3.02;100.00;98963.59;5085573;28;20516;-71
2024/03/25 04:01:46;;;;;;;0.40;0.40;;;;;;;3.06;100.00;98967.88;5085301;28;20024;-70
2024/03/25 04:04:11;;;;;;;0.75;0.75;;;;;;;3.05;100.00;98970.47;5085160;28;20021;-70
2024/03/25 04:06:40;;;;;;;1.80;1.70;;;;;;;3.05;100.00;98978.16;5084980;28;20059;-70
2024/03/25 04:09:06;;;;;;;0.73;0.73;;;;;;;2.96;100.00;98956.78;5084271;28;20028;-70
2024/03/25 04:11:32;;;;;;;0.73;0.70;;;;;;;3.06;100.00;98973.03;5084013;28;20021;-71
2024/03/25 04:13:57;;;;;;;0.60;0.60;;;;;;;3.02;100.00;98968.72;5084009;28;20084;-70
2024/03/25 04:16:22;;;;;;;0.60;0.60;;;;;;;3.05;100.00;98973.84;5085108;28;20058;-70
2024/03/25 04:18:48;;;;;;;1.23;1.20;;;;;;;3.03;100.00;98980.72;5084866;28;20480;-71
2024/03/25 04:21:13;;;;;;;0.60;0.60;;;;;;;3.00;100.00;98979.84;5085518;28;20043;-70
2024/03/25 04:23:40;;;;;;;0.70;0.70;;;;;;;3.03;100.00;98982.41;5085189;28;20024;-71
2024/03/25 04:26:07;;;;;;;0.50;0.50;;;;;;;2.99;100.00;98975.59;5085389;28;20387;-71
2024/03/25 04:28:32;;;;;;;0.80;0.80;;;;;;;3.04;100.00;98979.84;5085384;28;20435;-71
2024/03/25 04:30:58;;;;;;;2.55;0.77;;;;;;;3.03;100.00;98980.72;5085368;28;20020;-71
2024/03/25 04:33:23;;;;;;;0.50;0.50;;;;;;;3.03;100.00;98990.09;5085114;28;20028;-72
2024/03/25 04:35:48;;;;;;;0.50;0.50;;;;;;;2.99;100.00;98988.41;5084261;28;20029;-71
2024/03/25 04:38:17;;;;;;;0.50;0.50;;;;;;;2.98;100.00;98995.25;5085278;28;20031;-71
2024/03/25 04:40:44;;;;;;;0.50;0.50;;;;;;;2.86;100.00;98980.69;5083853;28;20034;-70
2024/03/25 04:43:09;;;;;;;0.70;0.70;;;;;;;2.91;100.00;98996.94;5083630;28;20032;-71
2024/03/25 04:45:35;;;;;;;1.05;0.98;;;;;;;2.89;100.00;98990.94;5084870;28;20029;-70
2024/03/25 04:48:00;;;;;;;0.52;0.52;;;;;;;2.90;100.00;98999.50;5084893;28;20028;-69
2024/03/25 04:50:26;;;;;;;0.60;0.60;;;;;;;2.91;100.00;98999.50;5083760;28;20021;-70
2024/03/25 04:52:51;;;;;;;1.00;1.00;;;;;;;2.90;100.00;98999.50;5084949;28;20020;-71
2024/03/25 04:55:17;;;;;;;1.30;0.60;;;;;;;2.90;100.00;99010.63;5084929;28;20435;-70
2024/03/25 04:57:43;;;;;;;0.50;0.50;;;;;;;2.74;100.00;98981.56;5084894;28;20077;-70
2024/03/25 05:00:10;;;;;;;0.60;0.60;;;;;;;2.85;100.00;99007.19;5084943;28;20088;-70
2024/03/25 05:02:37;;;;;;;0.60;0.60;;;;;;;2.83;100.00;99008.91;5084830;28;20028;-70
2024/03/25 05:05:03;;;;;;;0.88;0.70;;;;;;;2.92;100.00;99021.75;5084786;28;20028;-71
2024/03/25 05:07:28;;;;;;;0.70;0.70;;;;;;;2.97;100.00;99016.63;5084802;28;20061;-69
2024/03/25 05:09:54;;;;;;;1.17;1.08;;;;;;;2.97;100.00;99022.56;5084813;28;20051;-69
2024/03/25 05:12:19;;;;;;;0.60;0.60;;;;;;;2.99;100.00;99026.88;5084763;28;20027;-70
2024/03/25 05:14:45;;;;;;;1.02;0.60;;;;;;;2.99;100.00;99025.13;5084557;28;20028;-69
2024/03/25 05:17:10;;;;;;;0.47;0.47;;;;;;;3.12;100.00;99041.38;5084691;28;20025;-69
2024/03/25 05:19:35;;;;;;;0.80;0.80;;;;;;;3.12;100.00;99037.97;5084392;28;20067;-70
2024/03/25 05:22:01;;;;;;;0.50;0.50;;;;;;;3.12;100.00;99040.53;5084817;28;20387;-69
2024/03/25 05:24:28;;;;;;;0.70;0.70;;;;;;;3.05;100.00;99032.00;5084624;28;20020;-69
2024/03/25 05:26:53;;;;;;;0.60;0.60;;;;;;;3.06;100.00;99036.25;5083192;28;20423;-69
2024/03/25 05:29:19;;;;;;;0.50;0.50;;;;;;;3.09;100.00;99038.81;5084813;28;20028;-69
2024/03/25 05:32:00;;;;;;;0.50;0.50;;;;;;;3.04;100.00;99030.25;5084490;28;20025;-69
2024/03/25 05:34:27;;;;;;;0.73;0.73;;;;;;;3.07;100.00;99040.53;5084407;28;20048;-69
2024/03/25 05:36:52;;;;;;;0.50;0.50;;;;;;;2.99;100.00;99042.25;5084218;28;20103;-69
2024/03/25 05:39:18;;;;;;;0.47;0.47;;;;;;;2.96;100.00;99043.94;5084324;28;20086;-71
2024/03/25 05:41:44;;;;;;;0.47;0.47;;;;;;;2.93;100.00;99049.09;5084234;28;20023;-70
2024/03/25 05:44:09;;;;;;;0.43;0.43;;;;;;;2.96;100.00;99043.94;5083886;28;20112;-70
2024/03/25 05:46:34;;;;;;;0.80;0.80;;;;;;;2.90;100.00;99038.81;5084431;28;20032;-70
2024/03/25 05:49:03;;;;;;;0.50;0.50;;;;;;;3.02;100.00;99063.59;5086819;28;20020;-70
2024/03/25 05:51:30;;;;;;;0.60;0.60;;;;;;;3.02;100.00;99067.91;5088426;28;20159;-70
2024/03/25 05:53:55;;;;;;;0.93;0.60;;;;;;;2.99;100.00;99070.47;5088599;28;20031;-69
2024/03/25 05:56:20;;;;;;;0.43;0.43;;;;;;;2.99;100.00;99073.03;5086714;28;20024;-70
2024/03/25 05:58:46;;;;;;;0.50;0.50;;;;;;;2.93;100.00;99061.03;5088139;28;20028;-69
2024/03/25 06:01:12;;;;;;;0.50;0.50;;;;;;;3.02;100.00;99070.47;5087652;28;20023;-68
2024/03/25 06:03:37;;;;;;;0.70;0.60;;;;;;;2.99;100.00;99073.84;5087821;28;20029;-69
2024/03/25 06:06:03;;;;;;;0.47;0.47;;;;;;;3.00;100.00;99087.53;5088003;28;20017;-70
2024/03/25 06:08:29;;;;;;;0.40;0.40;;;;;;;2.92;100.00;99075.59;5086726;28;20044;-70
2024/03/25 06:10:54;;;;;;;0.50;0.50;;;;;;;2.97;100.00;99076.41;5088049;28;20087;-69
2024/03/25 06:13:21;;;;;;;0.88;0.88;;;;;;;3.03;100.00;99083.28;5087821;28;20016;-70
2024/03/25 06:15:47;;;;;;;0.60;0.60;;;;;;;3.08;100.00;99080.72;5087586;28;20024;-70
2024/03/25 06:18:12;;;;;;;2.67;0.70;;;;;;;3.11;100.00;99088.41;5087650;28;20591;-71
2024/03/25 06:20:38;;;;;;;1.35;1.25;;;;;;;3.17;100.00;99088.41;5087859;28;20051;-70
2024/03/25 06:23:03;;;;;;;0.65;0.65;;;;;;;3.16;100.00;99083.28;5086548;28;20111;-71
2024/03/25 06:25:29;;;;;;;0.40;0.40;;;;;;;3.16;100.00;99085.84;5087801;28;20072;-69
2024/03/25 06:27:55;;;;;;;0.60;0.60;;;;;;;3.17;100.00;99088.41;5087558;28;20024;-70
2024/03/25 06:35:48;;;;;;;0.40;0.40;;;;;;;3.22;99.88;99096.97;5087307;28;20040;-69
2024/03/25 06:38:14;;;;;;;0.50;0.50;;;;;;;3.18;98.98;99100.38;5087521;28;20029;-70
2024/03/25 06:40:39;;;;;;;1.10;0.57;;;;;;;3.13;99.06;99103.81;5087396;28;20029;-69
2024/03/25 06:43:05;;;;;;;0.60;0.60;;;;;;;3.15;99.33;99107.19;5087225;28;20032;-69
2024/03/25 06:45:31;;;;;;;0.60;0.60;;;;;;;3.19;99.56;99106.38;5087147;28;20020;-68
2024/03/25 06:48:00;;;;;;;0.40;0.40;;;;;;;3.18;99.58;99107.22;5087388;28;20027;-70
2024/03/25 06:50:25;;;;;;;0.50;0.50;;;;;;;3.21;99.47;99115.75;5087184;28;20035;-72
2024/03/25 06:52:51;;;;;;;0.50;0.50;;;;;;;3.15;99.32;99110.63;5087180;28;20104;-71
2024/03/25 06:55:17;;;;;;;0.50;0.50;;;;;;;3.12;99.50;99105.50;5087309;28;20063;-72
2024/03/25 06:57:42;;;;;;;0.52;0.52;;;;;;;3.25;99.60;99110.63;5087168;28;20100;-72
2024/03/25 07:00:13;;;;;;;0.57;0.57;;;;;;;3.26;99.25;99122.63;5085987;28;20032;-72
2024/03/25 07:02:41;;;;;;;1.05;0.95;;;;;;;3.24;98.81;99124.31;5086959;28;20028;-72
2024/03/25 07:05:06;;;;;;;0.50;0.50;;;;;;;3.22;99.21;99125.19;5086711;28;20017;-71
2024/03/25 07:07:33;;;;;;;0.50;0.50;;;;;;;3.17;99.11;99114.06;5086847;28;20039;-72
2024/03/25 07:09:59;;;;;;;0.60;0.60;;;;;;;3.22;98.64;99121.75;5086149;28;20027;-70
2024/03/25 07:12:24;;;;;;;0.40;0.40;;;;;;;3.26;98.97;99126.03;5086880;28;20495;-72
2024/03/25 07:14:49;;;;;;;0.50;0.50;;;;;;;3.23;98.63;99126.03;5085301;28;20078;-71
2024/03/25 07:17:15;;;;;;;1.73;1.13;;;;;;;3.26;98.21;99127.75;5086693;28;20020;-72
2024/03/25 07:19:40;;;;;;;1.05;1.05;;;;;;;3.27;98.11;99137.16;5118968;28;20045;-73
2024/03/25 07:22:05;;;;;;;0.50;0.50;;;;;;;3.19;97.79;99129.44;5086719;28;20054;-72
2024/03/25 07:24:31;;;;;;;0.40;0.40;;;;;;;3.19;97.81;99144.84;5086579;28;20035;-72
2024/03/25 07:26:56;;;;;;;0.52;0.45;;;;;;;3.24;97.75;99139.72;5086695;28;20037;-72
2024/03/25 07:29:21;;;;;;;0.50;0.50;;;;;;;3.30;98.04;99143.16;5086686;28;20024;-72
2024/03/25 07:31:47;;;;;;;0.60;0.60;;;;;;;3.28;97.83;99137.16;5086532;28;20042;-72
2024/03/25 07:34:12;;;;;;;0.50;0.50;;;;;;;3.32;97.47;99143.97;5084797;28;20115;-72
2024/03/25 07:36:38;;;;;;;0.75;0.75;;;;;;;3.24;97.40;99143.16;5086345;28;20055;-73
2024/03/25 07:39:05;;;;;;;0.40;0.40;;;;;;;3.29;97.54;99150.84;5086382;28;20029;-72
2024/03/25 07:41:31;;;;;;;1.58;0.95;;;;;;;3.34;97.56;99149.97;5086134;28;20021;-73
2024/03/25 07:43:56;;;;;;;0.70;0.70;;;;;;;3.37;97.79;99146.56;5086348;28;20063;-71
2024/03/25 07:46:22;;;;;;;4.43;0.70;;;;;;;3.48;97.65;99159.41;5086048;28;20051;-71
2024/03/25 07:48:47;;;;;;;0.50;0.50;;;;;;;3.51;97.72;99156.84;5086012;28;20162;-72
2024/03/25 07:51:12;;;;;;;0.47;0.47;;;;;;;3.56;97.44;99161.97;5086103;28;20032;-71
2024/03/25 07:53:38;;;;;;;0.50;0.50;;;;;;;3.59;97.40;99167.09;5086115;28;20072;-72
2024/03/25 07:56:04;;;;;;;0.40;0.40;;;;;;;3.57;97.20;99163.69;5085972;28;20024;-71
2024/03/25 07:58:30;;;;;;;0.50;0.50;;;;;;;3.62;97.60;99168.81;5086095;28;20048;-72
2024/03/25 08:00:56;;;;;;;0.40;0.40;;;;;;;3.66;97.35;99176.50;5084540;28;20061;-71
2024/03/25 08:03:22;;;;;;;0.50;0.50;;;;;;;3.63;97.49;99168.81;5082420;22;20052;-63
2024/03/25 08:05:47;;;;;;;0.50;0.50;;;;;;;3.71;97.07;99174.81;5053634;23;20032;-66
2024/03/25 08:08:12;;;;;;;0.70;0.70;;;;;;;3.84;97.48;99183.38;5084532;28;20043;-65
2024/03/25 08:10:38;;;;;;;0.82;0.70;;;;;;;3.90;97.81;99181.66;5083933;28;20025;-64
2024/03/25 08:13:03;;;;;;;1.00;0.95;;;;;;;3.95;97.62;99190.19;5084143;28;20024;-66
2024/03/25 08:15:29;;;;;;;0.40;0.40;;;;;;;3.90;97.15;99187.63;5066466;28;20127;-66
2024/03/25 08:17:54;;;;;;;0.40;0.40;;;;;;;3.85;96.13;99194.47;5084614;28;20040;-65
2024/03/25 08:20:19;;;;;;;0.60;0.60;;;;;;;3.76;96.40;99189.34;5084281;28;20029;-67
2024/03/25 08:22:45;;;;;;;2.80;0.80;;;;;;;3.79;96.28;99197.03;5084710;28;20020;-65
2024/03/25 08:25:11;;;;;;;0.55;0.55;;;;;;;3.83;96.51;99194.47;5084080;28;20063;-66
2024/03/25 08:27:37;;;;;;;0.55;0.55;;;;;;;3.87;96.83;99185.06;5083803;28;20024;-65
2024/03/25 08:30:03;;;;;;;0.50;0.50;;;;;;;3.90;97.05;99181.66;5084663;28;20074;-66
2024/03/25 08:32:29;;;;;;;0.75;0.75;;;;;;;4.08;97.16;99197.03;5084185;28;20472;-65
2024/03/25 08:34:54;;;;;;;0.50;0.50;;;;;;;4.16;97.06;99204.72;5084087;28;20021;-66
2024/03/25 08:37:19;;;;;;;0.82;0.82;;;;;;;4.20;96.89;99201.28;5084755;28;20025;-66
2024/03/25 08:39:46;;;;;;;0.63;0.63;;;;;;;4.31;97.22;99198.69;5084619;28;20021;-66
2024/03/25 08:42:12;;;;;;;0.50;0.50;;;;;;;4.22;96.81;99184.16;5083199;28;20043;-66
2024/03/25 08:44:37;;;;;;;0.50;0.50;;;;;;;4.34;96.79;99206.38;5084946;28;20479;-67
2024/03/25 08:47:02;;;;;;;0.40;0.40;;;;;;;4.34;96.70;99205.56;5084948;28;20028;-67
2024/03/25 08:49:28;;;;;;;0.47;0.47;;;;;;;4.29;96.52;99208.13;5085127;28;20405;-65
2024/03/25 08:51:53;;;;;;;9.73;0.95;;;;;;;4.23;96.58;99200.44;5085572;28;20056;-66
2024/03/25 08:54:18;;;;;;;2.15;1.40;;;;;;;4.23;96.91;99195.31;5085167;28;20026;-66
2024/03/25 08:56:44;;;;;;;1.40;0.60;;;;;;;4.36;97.23;99190.97;5084859;28;20027;-67
2024/03/25 08:59:10;;;;;;;0.40;0.40;;;;;;;4.43;96.89;99202.94;5085013;28;20043;-65
2024/03/25 09:01:36;;;;;;;0.70;0.70;;;;;;;4.42;96.37;99205.53;5084913;28;20020;-65
2024/03/25 09:04:01;;;;;;;0.50;0.50;;;;;;;4.44;96.52;99207.22;5084681;28;20021;-65
2024/03/25 09:06:27;;;;;;;0.65;0.65;;;;;;;4.44;96.28;99207.22;5084760;28;20110;-66
2024/03/25 09:11:37;;;;;;;1.35;0.95;;;;;;;4.41;96.09;99209.81;5085150;28;20074;-66
2024/03/25 09:14:04;;;;;;;0.50;0.50;;;;;;;4.46;96.10;99210.66;5084928;28;20017;-66
2024/03/25 09:16:30;;;;;;;0.47;0.47;;;;;;;4.53;96.41;99208.94;5084918;28;20052;-65
2024/03/25 09:18:55;;;;;;;0.70;0.60;;;;;;;4.59;96.66;99208.91;5084496;28;20040;-66
2024/03/25 09:21:21;;;;;;;0.40;0.40;;;;;;;4.70;96.80;99211.44;5085004;28;20092;-66
2024/03/25 09:23:47;;;;;;;0.40;0.40;;;;;;;4.80;96.71;99208.81;5088415;28;20103;-66
2024/03/25 09:26:13;;;;;;;0.40;0.40;;;;;;;4.84;96.49;99206.22;5088832;28;20074;-67
2024/03/25 09:28:39;;;;;;;0.50;0.50;;;;;;;4.86;95.58;99208.78;5088936;28;20016;-66
2024/03/25 09:31:05;;;;;;;0.57;0.57;;;;;;;4.88;94.94;99212.22;5088979;28;20089;-66
2024/03/25 09:33:31;;;;;;;0.60;0.60;;;;;;;4.82;94.68;99215.66;5087189;28;20484;-66
2024/03/25 09:35:56;;;;;;;0.68;0.60;;;;;;;4.84;95.28;99206.22;5088858;28;20025;-66
2024/03/25 09:38:21;;;;;;;0.50;0.50;;;;;;;4.85;95.06;99201.97;5088536;28;20016;-67
2024/03/25 09:40:47;;;;;;;0.47;0.47;;;;;;;4.93;95.09;99213.06;5088462;28;20051;-65
2024/03/25 09:43:33;;;;;;;1.20;0.70;;;;;;;4.88;95.34;99207.09;5088546;28;20031;-65
2024/03/25 09:45:59;;;;;;;7.57;0.90;;;;;;;4.93;95.96;99213.06;5088396;28;20074;-66
2024/03/25 09:48:25;;;;;;;0.50;0.50;;;;;;;5.07;96.20;99205.28;5087995;28;20024;-65
2024/03/25 09:50:52;;;;;;;0.77;0.77;;;;;;;5.21;96.27;99210.34;5088444;28;20073;-65
2024/03/25 09:53:17;;;;;;;0.60;0.60;;;;;;;5.37;96.65;99215.38;5088159;28;20046;-66
2024/03/25 09:55:43;;;;;;;0.50;0.50;;;;;;;5.35;95.98;99226.56;5088389;28;20072;-66
2024/03/25 09:58:09;;;;;;;0.50;0.50;;;;;;;5.35;95.86;99214.56;5070222;28;20500;-66
2024/03/25 10:00:34;;;;;;;0.50;0.50;;;;;;;5.35;95.74;99214.56;5088146;28;20021;-66
2024/03/25 10:02:59;;;;;;;1.35;0.90;;;;;;;5.40;95.97;99225.66;5086928;28;20028;-66
2024/03/25 10:05:25;;;;;;;0.50;0.50;;;;;;;5.48;96.02;99229.94;5087671;28;20048;-67
2024/03/25 10:07:50;;;;;;;0.68;0.68;;;;;;;5.48;95.72;99235.06;5087772;28;20111;-66
2024/03/25 10:10:20;;;;;;;0.50;0.50;;;;;;;5.41;95.20;99232.53;5088081;28;20054;-66
2024/03/25 10:12:45;;;;;;;0.57;0.57;;;;;;;5.32;95.33;99236.00;5069972;28;20162;-65
2024/03/25 10:15:15;;;;;;;0.40;0.40;;;;;;;5.34;94.32;99238.56;5087935;28;20439;-65
2024/03/25 10:17:41;;;;;;;0.50;0.50;;;;;;;5.32;94.77;99236.00;5087911;28;20115;-66
2024/03/25 10:20:09;;;;;;;0.60;0.60;;;;;;;5.27;94.66;99227.44;5087799;28;20025;-66
2024/03/25 10:22:44;;;;;;;0.73;0.70;;;;;;;5.21;94.18;99222.34;5087713;28;20073;-66
2024/03/25 10:25:29;;;;;;;0.50;0.50;;;;;;;5.20;94.63;99244.66;5087836;28;20494;-66
2024/03/25 10:27:58;;;;;;;0.60;0.60;;;;;;;5.12;93.96;99238.69;5087436;28;20017;-66
2024/03/25 10:30:24;;;;;;;0.65;0.65;;;;;;;5.00;93.57;99246.47;5086353;28;20031;-65
2024/03/25 10:33:03;;;;;;;0.40;0.40;;;;;;;4.92;94.01;99237.06;5087648;28;20044;-66
2024/03/25 10:35:34;;;;;;;0.50;0.50;;;;;;;4.89;94.01;99247.38;5086680;28;20032;-66
2024/03/25 10:38:04;;;;;;;1.63;0.82;;;;;;;4.86;93.89;99252.53;5087402;28;20028;-69
2024/03/25 10:40:39;;;;;;;0.50;0.50;;;;;;;4.86;94.08;99249.94;5087254;28;20025;-66
2024/03/25 10:43:10;;;;;;;0.40;0.40;;;;;;;4.84;93.14;99251.66;5087345;28;20071;-66
2024/03/25 10:45:44;;;;;;;0.50;0.50;;;;;;;4.71;91.74;99249.13;5087531;28;20054;-66
2024/03/25 10:48:21;;;;;;;0.40;0.40;;;;;;;4.73;92.31;99250.88;5087197;28;20020;-66
2024/03/25 10:50:48;;;;;;;0.63;0.63;;;;;;;4.88;93.06;99250.81;5087619;28;20468;-66
2024/03/25 10:53:18;;;;;;;0.50;0.50;;;;;;;5.03;92.88;99254.19;5087281;28;20031;-66
2024/03/25 10:55:48;;;;;;;0.57;0.57;;;;;;;5.21;93.10;99259.22;5087058;28;20495;-67
2024/03/25 10:58:15;;;;;;;0.40;0.40;;;;;;;5.36;93.04;99270.31;5087105;28;20024;-66
2024/03/25 11:00:42;;;;;;;0.50;0.50;;;;;;;5.51;93.21;99265.94;5086946;28;20076;-68
2024/03/25 11:03:08;;;;;;;0.50;0.50;;;;;;;5.58;92.98;99268.47;5068914;28;20039;-66
2024/03/25 11:05:34;;;;;;;0.60;0.60;;;;;;;5.50;92.07;99254.78;5086582;28;20438;-66
2024/03/25 11:08:13;;;;;;;0.50;0.50;;;;;;;5.68;92.65;99269.28;5086796;28;20378;-66
2024/03/25 11:10:45;;;;;;;0.50;0.50;;;;;;;5.63;92.42;99262.44;5087189;28;20028;-67
2024/03/25 11:13:14;;;;;;;0.40;0.40;;;;;;;5.57;92.32;99263.34;5086785;28;20447;-66
2024/03/25 11:15:44;;;;;;;0.50;0.50;;;;;;;5.58;92.81;99247.88;5086660;28;20427;-66
2024/03/25 11:18:13;;;;;;;0.50;0.50;;;;;;;5.66;93.23;99259.81;5086917;28;20055;-66
2024/03/25 11:20:39;;;;;;;0.50;0.50;;;;;;;5.65;93.10;99264.16;5086589;28;20024;-66
2024/03/25 11:23:12;;;;;;;0.68;0.60;;;;;;;5.68;93.63;99260.69;5086425;28;20025;-65
2024/03/25 11:25:38;;;;;;;0.50;0.50;;;;;;;5.70;93.81;99246.09;5086465;28;20028;-66
2024/03/25 11:28:04;;;;;;;0.40;0.40;;;;;;;5.73;93.94;99242.63;5086411;28;20073;-67
2024/03/25 11:30:31;;;;;;;0.40;0.40;;;;;;;5.86;94.88;99246.84;5086337;28;20056;-67
2024/03/25 11:32:58;;;;;;;0.47;0.47;;;;;;;5.96;94.25;99255.31;5086301;28;20084;-66
2024/03/25 11:35:24;;;;;;;0.47;0.47;;;;;;;6.08;94.42;99256.97;5086043;28;20039;-66
2024/03/25 11:37:52;;;;;;;0.40;0.40;;;;;;;6.09;94.02;99260.44;5086438;28;20025;-66
2024/03/25 11:40:18;;;;;;;0.47;0.47;;;;;;;6.05;94.07;99257.84;5086258;28;20487;-67